• Join FlightAware (Why Join?)
  • Login
  • US Flag 
11:17PM EDT


 

Airport Tracker/Info


-or-


 

Live Flight TrackerFlight Track Log ✈ FLG4081 ✈ 27-Jul-2013 ✈ KDTW - KGSO

Flight Track Log - Related Links

Times and Time Zones

All times are in EDT time to prevent confusion due to time zone crossing. See the FLG4081 flight status page for this flight to view local times or setup timezone preferences in your user account.

Time Position Orientation Groundspeed Altitude Reporting Facility
EDT Latitude Longitude Course Direction KTS MPH feet Rate Location/Type
08:46PM 42.2017 -83.3583 180° South 162 186 1,300  Level Cleveland Center
08:47PM 42.1661 -83.3567 178° South 190 219 2,700 2,280 Climbing Cleveland Center
08:48PM 42.1200 -83.3631 186° South 214 246 4,800 2,400 Climbing Cleveland Center
08:49PM 42.0453 -83.3597 178° South 262 302 7,400 2,280 Climbing Cleveland Center
08:49PM 42.0056 -83.3553 175° South 280 322 8,800 1,740 Climbing Cleveland Center
08:50PM 41.8247 -83.1163 180° South  Level Estimated
08:50PM 41.9244 -83.3544 180° South 293 337 10,300  Level Cleveland Center
08:51PM 41.7277 -83.0575 180° South  Level Estimated
08:51PM 41.8328 -83.3478 177° South 298 343 12,700  Level Cleveland Center
08:52PM 41.6306 -82.9989 180° South  Level Estimated
08:52PM 41.7428 -83.3578 185° South 311 358 13,800  Level Cleveland Center
08:53PM 41.6586 -83.3986 200° South 321 369 15,400 1,440 Climbing Cleveland Center
08:54PM 41.5658 -83.4417 199° South 334 384 16,700 1,500 Climbing Cleveland Center
08:55PM 41.4664 -83.4097 166° South 346 398 18,500 1,440 Climbing Cleveland Center
08:56PM 41.3719 -83.3558 157° South 351 404 19,600 900 Climbing Cleveland Center
08:57PM 41.2750 -83.3047 158° South 363 418 20,400 840 Climbing Cleveland Center
08:58PM 41.1742 -83.2508 158° South 374 430 21,300 660 Climbing Cleveland Center
09:01PM 40.9469 -83.1294 158° South 384 442 22,800 540 Climbing Indianapolis Center
09:02PM 40.8464 -83.0764 158° South 387 445 23,300 480 Climbing Indianapolis Center
09:03PM 40.7431 -83.0242 159° South 393 452 23,800 480 Climbing Indianapolis Center
09:04PM 40.6389 -82.9706 159° South 397 457 24,300 480 Climbing Indianapolis Center
09:05PM 40.5353 -82.9164 158° South 400 460 24,800 540 Climbing Indianapolis Center
09:06PM 40.4214 -82.8683 162° South 404 465 25,400 540 Climbing Indianapolis Center
09:07PM 40.3136 -82.8436 170° South 393 452 25,900 540 Climbing Indianapolis Center
09:08PM 40.2047 -82.8189 170° South 393 452 26,500 540 Climbing Indianapolis Center
09:09PM 40.0950 -82.7944 170° South 394 453 27,000 540 Climbing Indianapolis Center
09:10PM 39.9850 -82.7697 170° South 395 455 27,600 540 Climbing Indianapolis Center
09:11PM 39.8750 -82.7436 170° South 395 455 28,200 540 Climbing Indianapolis Center
09:12PM 39.7642 -82.7181 170° South 398 458 28,700 480 Climbing Indianapolis Center
09:13PM 39.6536 -82.6928 170° South 399 459 29,200 480 Climbing Indianapolis Center
09:14PM 39.5425 -82.6689 171° South 399 459 29,700 360 Climbing Indianapolis Center
09:15PM 39.4303 -82.6431 170° South 404 465 30,000 120 Climbing Indianapolis Center
09:16PM 39.3153 -82.6175 170° South 412 474 30,000  Level Indianapolis Center
09:17PM 39.1983 -82.5917 170° South 420 483 30,000  Level Indianapolis Center
09:18PM 39.0964 -82.5678 170° South 423 487 30,000  Level Indianapolis Center
09:19PM 38.9781 -82.5414 170° South 431 496 30,000  Level Indianapolis Center
09:20PM 38.8369 -82.5108 170° South 432 497 30,000  Level Indianapolis Center
09:21PM 38.7189 -82.4842 170° South 432 497 30,000  Level Indianapolis Center
09:22PM 38.5997 -82.4592 171° South 434 499 30,000  Level Indianapolis Center
09:23PM 38.4803 -82.4331 170° South 437 503 30,000  Level Indianapolis Center
09:24PM 38.3617 -82.4056 170° South 436 502 30,000  Level Indianapolis Center
09:25PM 38.2406 -82.3797 170° South 442 509 30,000  Level Indianapolis Center
09:26PM 38.1192 -82.3519 170° South 444 511 30,000  Level Indianapolis Center
09:27PM 37.9914 -82.3269 171° South 440 506 30,000  Level Indianapolis Center
09:28PM 37.8694 -82.3006 170° South 441 507 30,000 -300 Level Indianapolis Center
09:29PM 37.7453 -82.2742 170° South 447 514 29,400 -900 Descending Indianapolis Center
09:30PM 37.6186 -82.2464 170° South 456 525 28,200 -1,140 Descending Indianapolis Center
09:31PM 37.4894 -82.2189 170° South 466 536 27,100 -600 Descending Indianapolis Center
09:32PM 37.3614 -82.1914 170° South 465 535 27,000 -60 Descending Indianapolis Center
09:33PM 37.2408 -82.1478 164° South 463 533 27,000  Level Indianapolis Center
09:34PM 37.1475 -82.0319 135° Southeast 468 539 27,000  Level Indianapolis Center
09:35PM 37.0572 -81.9097 133° Southeast 474 545 27,000 -120 Level Indianapolis Center
09:36PM 36.9672 -81.7897 133° Southeast 472 543 26,800 -600 Descending Indianapolis Center
09:37PM 36.8761 -81.6675 133° Southeast 477 549 25,800 -1,140 Descending Indianapolis Center
09:38PM 36.7717 -81.5275 133° Southeast 473 544 24,500 -1,200 Descending Indianapolis Center
09:39PM 36.6958 -81.4144 130° Southeast 472 543 23,400 -1,440 Descending Indianapolis Center
09:40PM 36.6364 -81.2711 117° Southeast 479 551 21,600 -2,160 Descending Indianapolis Center
09:41PM 36.5703 -81.1039 116° Southeast 465 535 19,100 -2,220 Descending Indianapolis Center
09:42PM 36.5219 -80.9800 116° Southeast 419 482 17,100 -2,220 Descending Indianapolis Center
09:43PM 36.4767 -80.8672 117° Southeast 384 442 14,700 -2,220 Descending Indianapolis Center
09:44PM 36.4336 -80.7594 116° Southeast 366 421 12,700 -1,620 Descending Indianapolis Center
09:46PM 36.3667 -80.5992 117° Southeast 357 411 11,000 -780 Descending Atlanta Center
09:47PM 36.3264 -80.4978 116° Southeast 357 411 11,000 -60 Level Atlanta Center
09:48PM 36.2767 -80.3686 115° Southeast 369 425 10,900 -600 Descending Atlanta Center
09:49PM 36.2669 -80.2533 96° East 348 400 9,900 -1,500 Descending Atlanta Center
09:50PM 36.2575 -80.1508 96° East 329 379 7,900 -2,100 Descending Atlanta Center
09:51PM 36.2503 -80.0558 95° East 301 346 5,700 -2,100 Descending Atlanta Center
09:52PM 36.2494 -79.9708 91° East 278 320 3,800 -1,380 Descending Atlanta Center
09:53PM 36.2444 -79.8811 94° East 267 307 3,000 -840 Descending Atlanta Center